Time;durP1;ratioP1;P1;durP2;ratioP2;P2;SDS_P1;SDS_P2;PMS_P1;PMS_P2;Temp;Humidity;BMP_temperature;BMP_pressure;BME280_temperature;BME280_humidity;BME280_pressure;Samples;Min_cycle;Max_cycle;Signal;HPM_P1;HPM_P2
2023/10/27 00:00:58;;;;;;;6.32;4.15;;;;;;;9.69;100.00;99124.84;6275394;28;20045;-70
2023/10/27 00:04:00;;;;;;;7.32;4.07;;;;;;;9.61;100.00;99120.16;6267173;28;20053;-70
2023/10/27 00:07:01;;;;;;;8.27;4.47;;;;;;;9.61;100.00;99123.63;6275088;28;20052;-71
2023/10/27 00:10:04;;;;;;;8.90;4.68;;;;;;;9.60;100.00;99121.13;6275300;28;20434;-70
2023/10/27 00:13:06;;;;;;;9.00;4.85;;;;;;;9.61;100.00;99121.00;6275248;28;20060;-71
2023/10/27 00:16:09;;;;;;;7.10;4.20;;;;;;;9.63;100.00;99110.41;6275482;28;20055;-71
2023/10/27 00:19:11;;;;;;;7.10;4.18;;;;;;;9.65;100.00;99101.47;6275323;28;20045;-71
2023/10/27 00:22:12;;;;;;;7.90;4.25;;;;;;;9.61;100.00;99105.25;6275243;28;20056;-70
2023/10/27 00:25:15;;;;;;;11.10;4.78;;;;;;;9.57;100.00;99098.56;6275326;28;20087;-71
2023/10/27 00:28:16;;;;;;;7.45;3.88;;;;;;;9.58;100.00;99107.28;6275052;28;20452;-70
2023/10/27 00:31:18;;;;;;;6.90;4.45;;;;;;;9.62;100.00;99093.81;6274949;28;20056;-70
2023/10/27 00:34:19;;;;;;;6.45;4.15;;;;;;;9.66;100.00;99097.88;6266600;28;20056;-70
2023/10/27 00:37:21;;;;;;;10.18;5.15;;;;;;;9.69;100.00;99096.00;6275263;28;20125;-71
2023/10/27 00:40:23;;;;;;;6.15;4.00;;;;;;;9.70;100.00;99087.16;6274952;28;20045;-71
2023/10/27 00:43:25;;;;;;;7.72;4.63;;;;;;;9.59;100.00;99095.84;6274869;28;20060;-71
2023/10/27 00:46:26;;;;;;;9.82;4.38;;;;;;;9.58;100.00;99095.03;6275017;28;20056;-71
2023/10/27 00:49:29;;;;;;;8.25;4.43;;;;;;;9.55;100.00;99097.88;6274995;28;20045;-71
2023/10/27 00:52:30;;;;;;;11.43;4.90;;;;;;;9.66;100.00;99097.88;6274939;28;20076;-71
2023/10/27 00:55:34;;;;;;;8.07;4.97;;;;;;;9.62;100.00;99096.44;6275090;28;20052;-71
2023/10/27 00:58:38;;;;;;;7.72;4.38;;;;;;;9.65;100.00;99087.50;6274803;28;20446;-71
2023/10/27 01:01:40;;;;;;;13.13;4.15;;;;;;;9.57;100.00;99089.88;6274539;28;20087;-70
2023/10/27 01:04:42;;;;;;;7.43;3.90;;;;;;;9.60;100.00;99087.03;6274857;28;20049;-71
2023/10/27 01:07:43;;;;;;;8.48;4.60;;;;;;;9.61;100.00;99083.44;6274716;28;20056;-71
2023/10/27 01:10:46;;;;;;;7.95;4.32;;;;;;;9.65;100.00;99074.41;6269044;28;20418;-71
2023/10/27 01:13:50;;;;;;;8.80;4.32;;;;;;;9.75;100.00;99079.78;6272150;28;20654;-71
2023/10/27 01:16:52;;;;;;;9.02;4.45;;;;;;;9.67;100.00;99077.72;6278599;28;20053;-71
2023/10/27 01:19:53;;;;;;;7.95;4.63;;;;;;;9.72;100.00;99078.22;6279192;28;20041;-71
2023/10/27 01:22:56;;;;;;;7.97;4.82;;;;;;;9.74;100.00;99075.47;6278929;28;20056;-71
2023/10/27 01:25:57;;;;;;;9.02;4.88;;;;;;;9.71;100.00;99073.09;6279172;28;20045;-71
2023/10/27 01:28:59;;;;;;;7.38;4.32;;;;;;;9.67;100.00;99080.34;6279038;28;20326;-71
2023/10/27 01:32:00;;;;;;;12.05;4.82;;;;;;;9.66;100.00;99071.66;6278962;28;20056;-71
2023/10/27 01:35:02;;;;;;;7.57;4.63;;;;;;;9.67;100.00;99080.34;6278823;28;20353;-71
2023/10/27 01:38:04;;;;;;;8.45;4.82;;;;;;;9.66;100.00;99076.88;6279038;28;20056;-71
2023/10/27 01:41:06;;;;;;;11.73;5.05;;;;;;;9.64;100.00;99068.31;6278552;28;20480;-71
2023/10/27 01:44:08;;;;;;;7.00;4.43;;;;;;;9.64;100.00;99064.88;6278242;28;20055;-70
2023/10/27 01:47:09;;;;;;;9.98;4.88;;;;;;;9.64;100.00;99059.63;6270127;28;20461;-70
2023/10/27 01:50:11;;;;;;;7.28;4.13;;;;;;;9.70;100.00;99059.13;6270192;28;20065;-70
2023/10/27 01:53:13;;;;;;;10.88;4.53;;;;;;;9.70;100.00;99066.19;6277333;28;20361;-71
2023/10/27 01:56:15;;;;;;;8.82;4.85;;;;;;;9.76;100.00;99066.53;6271763;28;20076;-70
2023/10/27 01:59:17;;;;;;;10.10;5.00;;;;;;;9.68;100.00;99063.69;6278470;28;20452;-71
2023/10/27 02:02:18;;;;;;;8.05;4.40;;;;;;;9.63;100.00;99069.28;6278289;28;20045;-71
2023/10/27 02:05:20;;;;;;;8.23;4.85;;;;;;;9.67;100.00;99059.38;6278210;28;20052;-71
2023/10/27 02:08:23;;;;;;;8.43;4.43;;;;;;;9.71;100.00;99055.56;6269919;28;20049;-70
2023/10/27 02:11:24;;;;;;;9.27;4.60;;;;;;;9.70;100.00;99050.44;6278067;28;20049;-71
2023/10/27 02:14:25;;;;;;;10.82;5.30;;;;;;;9.69;100.00;99048.78;6277638;28;20053;-71
2023/10/27 02:17:27;;;;;;;7.95;4.78;;;;;;;9.75;100.00;99053.53;6278217;28;20052;-71
2023/10/27 02:20:29;;;;;;;10.98;5.60;;;;;;;9.75;100.00;99054.38;6278410;28;20048;-71
2023/10/27 02:23:32;;;;;;;7.45;4.60;;;;;;;9.70;100.00;99050.44;6277775;28;20049;-70
2023/10/27 02:26:35;;;;;;;8.55;4.88;;;;;;;9.71;100.00;99052.09;6268812;28;20048;-70
2023/10/27 02:29:37;;;;;;;8.02;4.70;;;;;;;9.71;100.00;99046.84;6277495;28;20048;-70
2023/10/27 02:32:38;;;;;;;7.07;4.03;;;;;;;9.71;100.00;99045.06;6277592;28;20056;-70
2023/10/27 02:35:39;;;;;;;10.05;5.18;;;;;;;9.66;100.00;99052.47;6277511;28;20053;-71
2023/10/27 02:38:42;;;;;;;8.93;4.60;;;;;;;9.65;100.00;99043.75;6277664;28;20052;-71
2023/10/27 02:41:44;;;;;;;10.48;5.50;;;;;;;9.66;100.00;99041.97;6277234;28;20053;-71
2023/10/27 02:44:45;;;;;;;8.57;4.50;;;;;;;9.61;100.00;99041.47;6277694;28;20052;-71
2023/10/27 02:47:46;;;;;;;8.45;4.15;;;;;;;9.59;100.00;99038.16;6277093;28;20331;-71
2023/10/27 02:50:48;;;;;;;8.10;4.55;;;;;;;9.53;100.00;99046.47;6277084;28;20060;-71
2023/10/27 02:53:51;;;;;;;9.10;4.15;;;;;;;9.42;100.00;99046.47;6277186;28;20059;-70
2023/10/27 02:56:52;;;;;;;10.13;4.82;;;;;;;9.36;100.00;99042.53;6277059;28;20103;-71
2023/10/27 02:59:56;;;;;;;9.73;4.63;;;;;;;9.37;100.00;99039.78;6276886;28;20104;-71
2023/10/27 03:02:57;;;;;;;7.93;4.32;;;;;;;9.34;100.00;99047.03;6276659;28;20045;-70
2023/10/27 03:05:58;;;;;;;9.18;5.05;;;;;;;9.30;100.00;99048.22;6276963;28;20467;-71
2023/10/27 03:09:01;;;;;;;7.43;4.47;;;;;;;9.27;100.00;99045.84;6276667;28;20077;-71
2023/10/27 03:12:03;;;;;;;8.65;4.90;;;;;;;9.26;100.00;99044.97;6276641;28;20049;-71
2023/10/27 03:15:05;;;;;;;8.13;4.40;;;;;;;9.27;100.00;99041.44;6276467;28;20229;-71
2023/10/27 03:18:06;;;;;;;8.73;3.72;;;;;;;9.32;100.00;99047.16;6268316;28;20057;-71
2023/10/27 03:21:08;;;;;;;7.50;4.40;;;;;;;9.37;100.00;99044.19;6276275;28;20045;-70
2023/10/27 03:24:10;;;;;;;7.35;3.85;;;;;;;9.42;100.00;99049.09;6276560;28;20045;-70
2023/10/27 03:27:12;;;;;;;9.57;5.25;;;;;;;9.38;100.00;99049.31;6276429;28;20059;-71
2023/10/27 03:30:14;;;;;;;8.40;5.18;;;;;;;9.31;100.00;99050.75;6276338;28;20056;-71
2023/10/27 03:33:16;;;;;;;10.77;5.30;;;;;;;9.37;100.00;99044.19;6275981;28;20071;-71
2023/10/27 03:36:17;;;;;;;8.43;4.03;;;;;;;9.34;100.00;99054.91;6276001;28;20114;-71
2023/10/27 03:39:20;;;;;;;6.38;3.65;;;;;;;9.35;100.00;99043.47;6275124;28;20337;-70
2023/10/27 03:42:21;;;;;;;9.43;4.63;;;;;;;9.38;100.00;99053.72;6275819;28;20056;-70
2023/10/27 03:45:25;;;;;;;8.10;4.80;;;;;;;9.31;100.00;99053.38;6275134;28;20182;-71
2023/10/27 03:48:26;;;;;;;7.40;4.25;;;;;;;9.27;100.00;99058.94;6267329;28;20187;-71
2023/10/27 03:51:27;;;;;;;6.90;3.80;;;;;;;9.28;100.00;99060.63;6267245;28;20045;-70
2023/10/27 03:54:30;;;;;;;9.93;4.57;;;;;;;9.29;100.00;99057.88;6275742;28;20056;-71
2023/10/27 03:57:34;;;;;;;7.13;4.22;;;;;;;9.36;100.00;99059.09;6272195;28;20354;-71
2023/10/27 04:00:35;;;;;;;11.35;4.22;;;;;;;9.38;100.00;99059.81;6270938;28;20045;-71
2023/10/27 04:03:37;;;;;;;10.00;4.40;;;;;;;9.26;100.00;99071.19;6275527;28;20053;-71
2023/10/27 04:06:40;;;;;;;11.05;5.13;;;;;;;9.27;100.00;99069.44;6275696;28;20045;-70
2023/10/27 04:09:42;;;;;;;11.32;5.43;;;;;;;9.35;100.00;99073.13;6270497;28;20037;-70
2023/10/27 04:12:44;;;;;;;13.93;6.13;;;;;;;9.41;100.00;99077.09;6272069;28;20110;-70
2023/10/27 04:15:47;;;;;;;12.45;5.97;;;;;;;9.33;100.00;99067.19;6275786;28;20049;-70
2023/10/27 04:18:48;;;;;;;13.45;5.65;;;;;;;9.32;100.00;99059.44;6275518;28;20045;-71
2023/10/27 04:21:49;;;;;;;11.77;4.97;;;;;;;9.28;100.00;99056.22;6275096;28;20214;-71
2023/10/27 04:24:52;;;;;;;12.73;5.88;;;;;;;9.29;100.00;99049.19;6275429;28;20055;-70
2023/10/27 04:27:55;;;;;;;11.63;5.75;;;;;;;9.33;100.00;99048.00;6275270;28;20370;-71
2023/10/27 04:30:56;;;;;;;19.05;5.85;;;;;;;9.34;100.00;99052.28;6275087;28;20045;-70
2023/10/27 04:33:57;;;;;;;13.80;5.90;;;;;;;9.36;100.00;99050.41;6275069;28;20350;-71
2023/10/27 04:36:59;;;;;;;15.15;5.85;;;;;;;9.36;100.00;99040.75;6266929;28;20049;-71
2023/10/27 04:40:02;;;;;;;14.98;5.15;;;;;;;9.35;100.00;99041.66;6275133;28;20049;-71
2023/10/27 04:43:03;;;;;;;13.18;5.85;;;;;;;9.36;100.00;99038.13;6274816;28;20053;-71
2023/10/27 04:46:05;;;;;;;13.23;5.85;;;;;;;9.34;100.00;99039.19;6274753;28;20049;-71
2023/10/27 04:49:06;;;;;;;11.73;5.57;;;;;;;9.34;100.00;99041.78;6266546;28;20052;-71
2023/10/27 04:52:07;;;;;;;17.70;6.70;;;;;;;9.31;100.00;99029.78;6279317;28;20052;-71
2023/10/27 04:55:10;;;;;;;13.35;6.13;;;;;;;9.37;100.00;99028.47;6279883;28;20060;-71
2023/10/27 04:58:12;;;;;;;11.65;4.93;;;;;;;9.35;100.00;99025.94;6279941;28;20059;-71
2023/10/27 05:01:13;;;;;;;14.85;6.13;;;;;;;9.36;100.00;99026.81;6279639;28;20055;-71
2023/10/27 05:04:15;;;;;;;11.68;4.90;;;;;;;9.37;100.00;99021.44;6279913;28;20441;-71
2023/10/27 05:07:16;;;;;;;14.55;5.78;;;;;;;9.32;100.00;99023.56;6279800;28;20056;-71
2023/10/27 05:10:19;;;;;;;15.50;6.38;;;;;;;9.31;100.00;99024.53;6279626;28;20053;-70
2023/10/27 05:13:20;;;;;;;14.50;6.28;;;;;;;9.27;100.00;99025.72;6279946;28;20057;-71
2023/10/27 05:16:22;;;;;;;14.45;6.18;;;;;;;9.20;100.00;99021.03;6279435;28;20053;-71
2023/10/27 05:19:23;;;;;;;15.88;5.28;;;;;;;9.20;100.00;99019.25;6279425;28;20048;-71
2023/10/27 05:22:25;;;;;;;14.70;5.82;;;;;;;9.19;100.00;99017.59;6279078;28;20053;-70
2023/10/27 05:25:28;;;;;;;13.93;6.43;;;;;;;9.23;100.00;99026.88;6279529;28;20417;-71
2023/10/27 05:28:29;;;;;;;12.82;5.30;;;;;;;9.22;100.00;99024.38;6279112;28;20063;-71
2023/10/27 05:31:31;;;;;;;13.00;6.25;;;;;;;9.24;100.00;99020.69;6278861;28;20520;-71
2023/10/27 05:34:32;;;;;;;15.10;6.90;;;;;;;9.25;100.00;99011.03;6279014;28;20064;-70
2023/10/27 05:37:34;;;;;;;18.15;7.18;;;;;;;9.25;100.00;99011.03;6278973;28;20317;-70
2023/10/27 05:40:36;;;;;;;21.00;7.18;;;;;;;9.23;100.00;99011.16;6278680;28;20391;-71
2023/10/27 05:43:38;;;;;;;19.30;8.27;;;;;;;9.24;100.00;99023.31;6278852;28;20055;-70
2023/10/27 05:46:39;;;;;;;24.10;8.80;;;;;;;9.15;100.00;99016.97;6276714;28;20049;-71
2023/10/27 05:49:41;;;;;;;21.77;8.32;;;;;;;9.09;100.00;99017.44;6270026;28;20056;-71
2023/10/27 05:52:42;;;;;;;20.90;7.95;;;;;;;9.02;100.00;99012.78;6278499;28;20049;-70
2023/10/27 05:55:45;;;;;;;18.70;7.47;;;;;;;9.01;100.00;99014.56;6270060;28;20235;-71
2023/10/27 05:58:46;;;;;;;20.42;7.60;;;;;;;9.03;100.00;99006.56;6278559;28;20059;-70
2023/10/27 06:01:48;;;;;;;17.38;6.88;;;;;;;9.00;100.00;99014.69;6276846;28;20499;-71
2023/10/27 06:04:50;;;;;;;20.35;7.03;;;;;;;9.07;100.00;99015.88;6270402;28;20056;-70
2023/10/27 06:07:52;;;;;;;19.80;7.50;;;;;;;9.07;100.00;99011.47;6278289;28;20048;-70
2023/10/27 06:10:54;;;;;;;16.80;7.45;;;;;;;9.07;100.00;99018.50;6278037;28;20060;-71
2023/10/27 06:13:56;;;;;;;18.73;7.50;;;;;;;9.08;100.00;99017.53;6278030;28;20049;-71
2023/10/27 06:16:57;;;;;;;19.10;8.88;;;;;;;9.09;100.00;99014.00;6278318;28;20060;-71
2023/10/27 06:20:01;;;;;;;20.55;8.02;;;;;;;9.01;100.00;99019.78;6268757;28;20124;-71
2023/10/27 06:23:02;;;;;;;21.50;8.48;;;;;;;9.03;100.00;99022.28;6275087;28;20362;-71
2023/10/27 06:26:05;;;;;;;19.58;8.73;;;;;;;9.04;100.00;99027.44;6269439;28;20077;-71
2023/10/27 06:29:07;;;;;;;19.88;9.15;;;;;;;9.08;100.00;99020.16;6269286;28;20049;-71
2023/10/27 06:32:08;;;;;;;22.65;8.35;;;;;;;9.08;100.00;99013.16;6269972;28;20053;-70
2023/10/27 06:35:09;;;;;;;19.92;8.32;;;;;;;9.12;100.00;99024.22;6277347;28;20048;-70
2023/10/27 06:38:11;;;;;;;21.55;9.43;;;;;;;9.15;100.00;99014.34;6277693;28;20049;-71
2023/10/27 06:41:13;;;;;;;28.70;9.52;;;;;;;9.15;100.00;99024.84;6277245;28;20053;-70
2023/10/27 06:44:15;;;;;;;21.25;8.40;;;;;;;9.13;100.00;99021.50;6268757;28;20357;-71
2023/10/27 06:47:18;;;;;;;30.02;12.55;;;;;;;9.18;100.00;99030.81;6271992;28;20067;-70
2023/10/27 06:50:20;;;;;;;30.20;12.23;;;;;;;9.20;100.00;99031.53;6271471;28;20049;-72
2023/10/27 06:53:21;;;;;;;28.63;11.80;;;;;;;9.24;100.00;99036.41;6274701;28;20049;-70
2023/10/27 06:56:24;;;;;;;26.42;10.82;;;;;;;9.25;100.00;99034.63;6270317;28;20369;-71
2023/10/27 06:59:25;;;;;;;44.00;20.00;;;;;;;9.26;100.00;99037.13;6268609;28;20045;-71
2023/10/27 07:02:26;;;;;;;27.77;10.50;;;;;;;9.20;100.00;99040.22;6275836;28;20045;-71
2023/10/27 07:05:29;;;;;;;24.50;10.63;;;;;;;9.25;100.00;99037.25;6269961;28;20049;-70
2023/10/27 07:08:30;;;;;;;28.27;10.55;;;;;;;9.25;100.00;99040.69;6257658;28;20140;-70
2023/10/27 07:11:33;;;;;;;27.75;10.80;;;;;;;9.31;100.00;99040.25;6262279;28;20053;-72
2023/10/27 07:14:34;;;;;;;30.73;13.15;;;;;;;9.30;100.00;99037.72;6265029;28;20398;-70
2023/10/27 07:17:37;;;;;;;39.83;13.60;;;;;;;9.30;100.00;99046.44;6269195;28;20049;-71
2023/10/27 07:20:39;;;;;;;38.47;14.63;;;;;;;9.34;100.00;99036.56;6266872;28;20119;-71
2023/10/27 07:23:40;;;;;;;26.33;10.07;;;;;;;9.35;100.00;99039.06;6259599;28;20438;-71
2023/10/27 07:26:43;;;;;;;30.50;11.27;;;;;;;9.33;100.00;99048.00;6272302;28;20060;-71
2023/10/27 07:29:46;;;;;;;24.15;9.77;;;;;;;9.33;100.00;99050.63;6275997;28;20053;-71
2023/10/27 07:32:48;;;;;;;26.90;9.02;;;;;;;9.35;100.00;99051.31;6276131;28;20056;-71
2023/10/27 07:35:49;;;;;;;23.17;7.85;;;;;;;9.39;100.00;99055.38;6267593;28;20051;-71
2023/10/27 07:38:51;;;;;;;22.77;9.00;;;;;;;9.40;100.00;99055.28;6272312;28;20053;-72
2023/10/27 07:41:54;;;;;;;21.40;8.05;;;;;;;9.41;100.00;99053.50;6251434;28;20052;-72
2023/10/27 07:44:55;;;;;;;26.30;10.10;;;;;;;9.41;100.00;99045.63;6265836;28;20063;-72
2023/10/27 07:47:58;;;;;;;24.98;8.68;;;;;;;9.43;100.00;99051.59;6273095;28;20052;-71
2023/10/27 07:51:00;;;;;;;21.55;8.40;;;;;;;9.48;100.00;99048.63;6265088;28;20052;-71
2023/10/27 07:54:01;;;;;;;26.23;9.55;;;;;;;9.46;100.00;99048.75;6264918;28;20052;-71
2023/10/27 07:57:05;;;;;;;23.98;9.18;;;;;;;9.42;100.00;99049.09;6271062;28;20059;-71
2023/10/27 08:00:09;;;;;;;27.48;8.98;;;;;;;9.44;100.00;99041.94;6269116;28;20046;-71
2023/10/27 08:03:11;;;;;;;32.75;10.65;;;;;;;9.45;100.00;99041.84;6269037;28;20049;-71
2023/10/27 08:06:13;;;;;;;26.33;9.75;;;;;;;9.51;100.00;99041.34;6272234;28;20460;-71
2023/10/27 08:09:14;;;;;;;23.92;9.02;;;;;;;9.59;100.00;99051.28;6270482;28;20048;-71
2023/10/27 08:12:17;;;;;;;28.23;9.50;;;;;;;9.63;100.00;99045.69;6267158;28;20046;-71
2023/10/27 08:15:18;;;;;;;24.77;9.48;;;;;;;9.62;100.00;99038.72;6259580;28;20057;-70
2023/10/27 08:18:21;;;;;;;26.75;9.77;;;;;;;9.64;100.00;99044.72;6259076;28;20072;-70
2023/10/27 08:21:22;;;;;;;24.13;9.52;;;;;;;9.69;100.00;99040.91;6258624;28;20157;-71
2023/10/27 08:24:24;;;;;;;24.85;9.15;;;;;;;9.76;100.00;99049.97;6255626;28;20056;-71
2023/10/27 08:27:27;;;;;;;26.95;9.23;;;;;;;9.75;100.00;99048.28;6266898;28;20045;-71
2023/10/27 08:30:28;;;;;;;27.38;9.13;;;;;;;9.73;100.00;99044.97;6261100;28;20218;-71
2023/10/27 08:33:30;;;;;;;31.52;10.20;;;;;;;9.76;100.00;99042.91;6264119;28;20053;-71
2023/10/27 08:36:32;;;;;;;26.15;9.85;;;;;;;9.75;100.00;99048.28;6250615;28;20461;-71
2023/10/27 08:39:34;;;;;;;31.48;11.07;;;;;;;9.75;100.00;99053.53;6250803;28;20049;-72
2023/10/27 08:42:37;;;;;;;29.58;9.95;;;;;;;9.86;100.00;99058.81;6250042;28;20046;-71
2023/10/27 08:45:39;;;;;;;33.03;9.52;;;;;;;9.83;100.00;99054.63;6250372;28;20373;-72
2023/10/27 08:48:42;;;;;;;25.27;10.07;;;;;;;9.88;100.00;99059.50;6250133;28;20049;-72
2023/10/27 08:51:44;;;;;;;37.13;11.10;;;;;;;9.87;100.00;99060.47;6249927;28;20446;-72
2023/10/27 08:54:46;;;;;;;29.90;10.10;;;;;;;9.90;100.00;99070.72;6265540;28;20055;-72
2023/10/27 08:57:48;;;;;;;20.10;8.95;;;;;;;9.89;100.00;99066.41;6266724;28;20137;-71
2023/10/27 09:00:50;;;;;;;21.73;9.93;;;;;;;9.89;100.00;99058.53;6266148;28;20052;-72
2023/10/27 09:04:08;;;;;;;25.83;9.80;;;;;;;9.86;100.00;99058.81;6274988;28;20053;-72
2023/10/27 09:07:10;;;;;;;22.67;9.70;;;;;;;9.89;100.00;99064.63;6266155;28;20151;-72
2023/10/27 09:10:13;;;;;;;22.08;8.77;;;;;;;9.94;100.00;99068.69;6268897;28;20053;-71
2023/10/27 09:13:20;;;;;;;26.25;9.80;;;;;;;9.96;100.00;99062.38;6260078;28;20453;-73
2023/10/27 09:16:25;;;;;;;24.70;9.57;;;;;;;10.00;100.00;99063.81;6264527;28;20053;-72
2023/10/27 09:19:26;;;;;;;24.65;9.05;;;;;;;10.04;100.00;99064.41;6265972;28;20053;-72
2023/10/27 09:22:28;;;;;;;25.90;9.27;;;;;;;10.08;100.00;99064.06;6268278;28;20128;-71
2023/10/27 09:25:31;;;;;;;23.27;8.80;;;;;;;10.07;100.00;99064.16;6265905;28;20079;-71
2023/10/27 09:28:34;;;;;;;22.98;9.15;;;;;;;10.05;100.00;99066.06;6274476;28;20048;-72
2023/10/27 09:31:36;;;;;;;25.30;9.30;;;;;;;10.00;100.00;99068.22;6273336;28;20051;-72
2023/10/27 09:34:37;;;;;;;20.65;8.48;;;;;;;10.04;100.00;99062.63;6266201;28;20055;-72
2023/10/27 09:37:39;;;;;;;18.20;8.38;;;;;;;10.11;100.00;99073.47;6277661;28;20047;-71
2023/10/27 09:40:41;;;;;;;34.35;10.35;;;;;;;10.07;100.00;99070.22;6270174;28;20048;-71
2023/10/27 09:43:44;;;;;;;23.38;8.45;;;;;;;10.14;100.00;99063.56;6278704;28;20452;-72
2023/10/27 09:46:52;;;;;;;19.27;8.07;;;;;;;10.13;100.00;99069.78;6278055;28;20059;-72
2023/10/27 09:50:02;;;;;;;20.02;8.85;;;;;;;10.19;100.00;99068.44;6274486;28;20049;-72
2023/10/27 09:53:04;;;;;;;20.75;8.60;;;;;;;10.25;100.00;99065.38;6272426;28;20041;-71
2023/10/27 09:56:07;;;;;;;22.83;8.55;;;;;;;10.20;100.00;99067.50;6269982;28;20055;-72
2023/10/27 09:59:09;;;;;;;21.15;8.88;;;;;;;10.18;100.00;99061.53;6269890;28;20352;-72
2023/10/27 10:02:11;;;;;;;22.02;8.95;;;;;;;10.28;100.00;99064.31;6278190;28;20048;-71
2023/10/27 10:05:13;;;;;;;18.88;8.57;;;;;;;10.33;100.00;99072.66;6278283;28;20056;-72
2023/10/27 10:08:14;;;;;;;24.80;9.60;;;;;;;10.21;100.00;99071.78;6278423;28;20076;-71
2023/10/27 10:11:18;;;;;;;20.75;8.65;;;;;;;10.35;100.00;99068.09;6261363;28;20052;-71
2023/10/27 10:14:50;;;;;;;20.02;8.30;;;;;;;10.41;100.00;99067.63;6266232;28;20059;-71
2023/10/27 10:17:51;;;;;;;25.05;9.23;;;;;;;10.32;100.00;99061.31;6269618;28;20072;-71
2023/10/27 10:20:56;;;;;;;26.38;9.60;;;;;;;10.36;100.00;99059.28;6269456;28;20053;-73
2023/10/27 10:24:17;;;;;;;22.70;8.55;;;;;;;10.36;100.00;99060.13;6277889;28;20049;-72
2023/10/27 10:27:19;;;;;;;22.60;9.55;;;;;;;10.49;100.00;99057.34;6277966;28;20056;-72
2023/10/27 10:30:22;;;;;;;19.83;8.05;;;;;;;10.47;100.00;99059.25;6277613;28;20060;-73
2023/10/27 10:33:25;;;;;;;26.58;9.52;;;;;;;10.49;100.00;99051.25;6269149;28;20055;-72
2023/10/27 10:36:27;;;;;;;27.92;10.05;;;;;;;10.54;100.00;99056.97;6278000;28;20049;-72
2023/10/27 10:39:29;;;;;;;28.42;9.52;;;;;;;10.59;100.00;99052.19;6277722;28;20055;-73
2023/10/27 10:42:30;;;;;;;26.25;9.30;;;;;;;10.50;100.00;99045.06;6277424;28;20056;-74
2023/10/27 10:45:44;;;;;;;27.85;10.05;;;;;;;10.55;100.00;99043.72;6277088;28;20048;-75
2023/10/27 10:48:47;;;;;;;32.97;10.57;;;;;;;10.58;100.00;99048.72;6271785;28;20437;-71
2023/10/27 10:51:52;;;;;;;24.35;9.82;;;;;;;10.56;100.00;99055.06;6260131;28;20037;-73
2023/10/27 10:54:53;;;;;;;29.20;11.00;;;;;;;10.54;100.00;99049.09;6277257;28;20065;-74
2023/10/27 10:57:55;;;;;;;33.05;11.13;;;;;;;10.47;100.00;99045.28;6265961;28;20045;-73
2023/10/27 11:01:00;;;;;;;28.52;9.65;;;;;;;10.51;100.00;99051.97;6276860;28;20357;-73
2023/10/27 11:04:02;;;;;;;29.65;10.02;;;;;;;10.51;100.00;99047.53;6276978;28;20499;-72
2023/10/27 11:07:04;;;;;;;27.63;10.13;;;;;;;10.51;100.00;99049.34;6277062;28;20070;-72
2023/10/27 11:10:18;;;;;;;23.80;8.15;;;;;;;10.64;100.00;99050.84;6276672;28;20048;-73
2023/10/27 11:13:19;;;;;;;24.75;9.35;;;;;;;10.51;100.00;99049.34;6269783;28;20041;-73
2023/10/27 11:16:23;;;;;;;30.70;10.40;;;;;;;10.48;100.00;99050.41;6251906;28;20054;-72
2023/10/27 11:19:25;;;;;;;27.98;10.68;;;;;;;10.48;100.00;99049.56;6251571;28;20045;-72
2023/10/27 11:22:27;;;;;;;25.92;9.25;;;;;;;10.56;100.00;99049.81;6251447;28;20050;-73
2023/10/27 11:25:28;;;;;;;30.20;10.10;;;;;;;10.59;100.00;99037.25;6251733;28;20061;-73
2023/10/27 11:28:30;;;;;;;33.15;10.07;;;;;;;10.62;100.00;99046.66;6273747;28;20048;-71
2023/10/27 11:31:39;;;;;;;26.90;10.15;;;;;;;10.61;100.00;99037.97;6263409;28;20078;-72
2023/10/27 11:34:40;;;;;;;32.58;10.95;;;;;;;10.62;100.00;99036.16;6268119;28;20045;-73
2023/10/27 11:37:41;;;;;;;23.65;8.80;;;;;;;10.65;100.00;99034.13;6262557;28;20057;-73
2023/10/27 11:40:43;;;;;;;28.15;10.40;;;;;;;10.63;100.00;99037.84;6268544;28;20049;-74
2023/10/27 11:43:45;;;;;;;26.73;9.43;;;;;;;10.65;100.00;99036.75;6262838;28;20460;-73
2023/10/27 11:46:48;;;;;;;30.52;9.63;;;;;;;10.72;100.00;99041.50;6263479;28;20045;-73
2023/10/27 11:49:50;;;;;;;27.83;10.15;;;;;;;10.75;100.00;99039.47;6270123;28;20051;-75
2023/10/27 11:52:51;;;;;;;29.85;10.05;;;;;;;10.73;100.00;99036.16;6270217;28;20366;-74
2023/10/27 11:55:53;;;;;;;29.38;10.43;;;;;;;10.71;100.00;99032.78;6268659;28;20425;-74
2023/10/27 11:58:54;;;;;;;27.98;10.60;;;;;;;10.75;100.00;99038.63;6266311;28;20361;-73
2023/10/27 12:01:57;;;;;;;28.08;10.23;;;;;;;10.73;100.00;99036.16;6273957;28;20059;-75
2023/10/27 12:04:58;;;;;;;25.75;9.10;;;;;;;10.73;100.00;99037.94;6269681;28;20056;-74
2023/10/27 12:08:00;;;;;;;31.45;10.45;;;;;;;10.71;100.00;99030.16;6265751;28;20049;-75
2023/10/27 12:11:03;;;;;;;25.95;10.57;;;;;;;10.71;100.00;99031.97;6266617;28;20057;-75
2023/10/27 12:14:04;;;;;;;27.77;10.20;;;;;;;10.70;100.00;99031.13;6267206;28;20468;-75
2023/10/27 12:17:07;;;;;;;26.92;10.40;;;;;;;10.65;100.00;99030.66;6264989;28;20406;-74
2023/10/27 12:20:12;;;;;;;22.13;8.75;;;;;;;10.70;100.00;99027.66;6266700;28;20438;-74
2023/10/27 12:23:13;;;;;;;19.58;8.93;;;;;;;10.77;100.00;99028.84;6274474;28;20072;-76
2023/10/27 12:26:15;;;;;;;26.70;10.13;;;;;;;10.65;100.00;99035.91;6271625;28;20049;-75
2023/10/27 12:29:17;;;;;;;30.00;11.68;;;;;;;10.66;100.00;99029.72;6250440;28;20057;-74
2023/10/27 12:32:19;;;;;;;27.70;10.57;;;;;;;10.62;100.00;99036.16;6251185;28;20092;-73
2023/10/27 12:35:22;;;;;;;28.50;10.35;;;;;;;10.60;100.00;99032.84;6262715;28;20076;-75
2023/10/27 12:38:24;;;;;;;29.92;12.60;;;;;;;10.61;100.00;99031.88;6255223;28;20056;-74
2023/10/27 12:41:26;;;;;;;25.90;10.68;;;;;;;10.65;100.00;99039.38;6250378;28;20053;-74
2023/10/27 12:44:28;;;;;;;28.90;11.52;;;;;;;10.70;100.00;99028.50;6254660;28;20128;-74
2023/10/27 12:47:30;;;;;;;28.60;10.82;;;;;;;10.64;100.00;99035.09;6262931;28;20045;-74
2023/10/27 12:50:32;;;;;;;24.40;9.38;;;;;;;10.68;100.00;99037.47;6266376;28;20063;-73
2023/10/27 12:53:33;;;;;;;29.38;9.75;;;;;;;10.63;100.00;99033.44;6267786;28;20463;-74
2023/10/27 12:56:35;;;;;;;18.02;7.65;;;;;;;10.62;100.00;99036.16;6266404;28;20053;-74
2023/10/27 12:59:36;;;;;;;26.58;10.52;;;;;;;10.61;100.00;99027.44;6265961;28;20134;-74
2023/10/27 13:02:39;;;;;;;26.75;11.05;;;;;;;10.57;100.00;99030.44;6272432;28;20060;-74
2023/10/27 13:05:41;;;;;;;28.77;9.98;;;;;;;10.54;100.00;99034.19;6265678;28;20365;-74
2023/10/27 13:08:42;;;;;;;25.58;10.07;;;;;;;10.53;100.00;99023.78;6266293;28;20061;-73
2023/10/27 13:11:44;;;;;;;24.80;8.85;;;;;;;10.49;100.00;99023.22;6272919;28;20046;-72
2023/10/27 13:14:45;;;;;;;27.20;9.48;;;;;;;10.53;100.00;99034.28;6256314;28;20053;-73
2023/10/27 13:17:48;;;;;;;23.65;9.35;;;;;;;10.50;100.00;99027.50;6254908;28;20055;-73
2023/10/27 13:20:50;;;;;;;21.67;9.35;;;;;;;10.55;100.00;99029.75;6263871;28;20434;-74
2023/10/27 13:23:51;;;;;;;23.10;9.57;;;;;;;10.59;100.00;99032.00;6275224;28;20045;-72
2023/10/27 13:26:53;;;;;;;23.88;9.10;;;;;;;10.61;100.00;99035.31;6271421;28;20053;-73
2023/10/27 13:29:57;;;;;;;22.25;8.38;;;;;;;10.66;100.00;99040.22;6278974;28;20052;-72
2023/10/27 13:33:02;;;;;;;20.27;9.65;;;;;;;10.61;100.00;99029.25;6279087;28;20045;-73
2023/10/27 13:36:08;;;;;;;22.58;8.25;;;;;;;10.61;100.00;99031.88;6278977;28;20455;-72
2023/10/27 13:39:10;;;;;;;23.83;9.27;;;;;;;10.59;100.00;99024.13;6274674;28;20059;-73
2023/10/27 13:42:13;;;;;;;19.70;8.93;;;;;;;10.55;100.00;99029.75;6270163;28;20047;-74
2023/10/27 13:45:15;;;;;;;18.45;7.57;;;;;;;10.52;100.00;99036.06;6278733;28;20464;-74
2023/10/27 13:48:18;;;;;;;17.77;7.13;;;;;;;10.42;100.00;99027.28;6278646;28;20662;-74
2023/10/27 13:51:20;;;;;;;17.42;7.20;;;;;;;10.45;100.00;99034.91;6278474;28;20512;-74
2023/10/27 13:54:22;;;;;;;21.02;8.43;;;;;;;10.41;100.00;99036.94;6261920;28;20045;-75
2023/10/27 13:57:23;;;;;;;20.58;7.97;;;;;;;10.36;100.00;99038.28;6270683;28;20061;-74
2023/10/27 14:00:26;;;;;;;18.40;7.60;;;;;;;10.30;100.00;99044.00;6270105;28;20055;-74
2023/10/27 14:03:29;;;;;;;19.20;7.70;;;;;;;10.25;100.00;99046.16;6275538;28;20056;-74